Lansing, Kansas
Current Conditions -  °F | °C
As of 4:53 PM on Friday 19 Dec 2014 (Local Time) from KMCI Reporting Station
Haze Haze  
Wind Chill:   Ceiling: 1400
Heat Index:   Visibility: 5mi
Dew Point: -1°   Wind: 0mph
Humidity: 92%   Direction: NA
Pressure: 30.2"   Gusts: NA
Location:  39.24°N, 94.9°W
Report Text: KMCI 192253Z 00000KT 5SM BR OVC014 00/M01 A3020 RMK AO2 SLP235 T00001011 $
Loading
Personal Weather Stations






























Interactive Weather Map New forecast layout! Learn more

10-Day Weather Forecast

Advertisements
Track Severe Weather on mobile